S73 Hermelin — DRCG — position and weather

sailwx.info

Track history (hours):
 
Tides and Currents Weather Stations Pressure Air Temp Water Temp Dewpoint Dewpoint Depression Visibility Wind Speed Wind Dir Waves Ship Positions

S73 Hermelin

Last reported at 2015-May-28 13:29 UTC. Time now 2015-May-30 20:42 UTC.
Position N 54°10' E 012°07'.

Length 58 m.

Type: Military. MMSI: 211210610.

Date/timePositionNaut miles runAvg speedWind from/ knotsBaromVisibWave heightAir tempDewpointWater temp
2015-May-28 13:29N 54°10' E 012°07'1212.5
2015-May-28 12:29N 54°11' E 011°46'9 9.9
2015-May-28 11:33N 54°07' E 011°32'14 9.2
2015-May-28 10:05N 53°57' E 011°16'2 4.5
2015-May-28 09:33N 53°58' E 011°20'1413.5
2015-May-28 08:30N 54°10' E 011°35'8 8.6
2015-May-28 07:31N 54°12' E 011°49'1010.1
2015-May-28 06:32N 54°11' E 012°06'1 0.1
2015-May-27 13:07N 54°10' E 012°07'4 7.7
2015-May-27 12:33N 54°12' E 012°00'2020.2
2015-May-27 11:33N 54°18' E 011°27'7 6.5
2015-May-27 10:33N 54°17' E 011°38'1717.0
2015-May-27 09:32N 54°10' E 012°06'1 0.8
2015-May-27 08:20N 54°10' E 012°08'0 0.0
2015-May-27 07:14N 54°10' E 012°08'0 0.4
2015-May-27 06:25N 54°10' E 012°07'0 0.0
2015-May-27 05:19N 54°10' E 012°07'0 0.0
2015-May-27 03:10N 54°10' E 012°07'0 0.0
2015-May-27 02:31N 54°10' E 012°07'0 0.0
2015-May-27 00:13N 54°10' E 012°07'0 0.0
2015-May-26 23:31N 54°10' E 012°07'0 0.0
2015-May-26 22:31N 54°10' E 012°07'0 0.0
2015-May-26 21:25N 54°10' E 012°07'0 0.0
2015-May-26 20:13N 54°10' E 012°07'0 0.0
2015-May-26 18:28N 54°10' E 012°07'0 0.0
2015-May-26 17:28N 54°10' E 012°07'0 0.0
2015-May-26 16:28N 54°10' E 012°07'0 0.0
2015-May-26 15:22N 54°10' E 012°07'0 0.0
2015-May-26 14:25N 54°10' E 012°07'0 0.0
2015-May-26 12:10N 54°10' E 012°07'0 0.0
2015-May-26 10:28N 54°10' E 012°07'0 0.0
2015-May-26 09:31N 54°10' E 012°07'0 0.0
2015-May-26 08:25N 54°10' E 012°07'0 0.0
2015-May-26 07:31N 54°10' E 012°07'0 0.0
2015-May-26 06:22N 54°10' E 012°07'0 0.0
2015-May-26 05:31N 54°10' E 012°07'0 0.0
2015-May-26 03:31N 54°10' E 012°07'0 0.0
2015-May-26 02:04N 54°10' E 012°07'0 0.0
2015-May-26 01:28N 54°10' E 012°07'0 0.0
2015-May-26 00:13N 54°10' E 012°07'0 0.0
2015-May-25 22:25N 54°10' E 012°07'0 0.0
2015-May-25 21:31N 54°10' E 012°07'0 0.0
2015-May-25 20:31N 54°10' E 012°07'0 0.0
2015-May-25 18:31N 54°10' E 012°07'0 0.0
2015-May-25 17:31N 54°10' E 012°07'0 0.0
2015-May-25 16:22N 54°10' E 012°07'0 0.0
2015-May-25 15:28N 54°10' E 012°07'0 0.0
2015-May-25 14:22N 54°10' E 012°07'0 0.0
2015-May-25 13:31N 54°10' E 012°07'0 0.0
2015-May-25 12:25N 54°10' E 012°07'0 0.0
2015-May-25 11:28N 54°10' E 012°07'0 0.0
2015-May-25 10:28N 54°10' E 012°07'0 0.0
2015-May-25 09:31N 54°10' E 012°07'0 0.0
2015-May-25 08:10N 54°10' E 012°07'0 0.0
2015-May-25 07:22N 54°10' E 012°07'0 0.0
2015-May-25 06:25N 54°10' E 012°07'0 0.0
2015-May-25 05:28N 54°10' E 012°07'0 0.0
2015-May-25 03:22N 54°10' E 012°07'0 0.0
2015-May-25 02:16N 54°10' E 012°07'0 0.0
2015-May-25 01:28N 54°10' E 012°07'0 0.0
2015-May-25 00:28N 54°10' E 012°07'0 0.0
2015-May-24 23:25N 54°10' E 012°07'0 0.0
2015-May-24 22:22N 54°10' E 012°07'0 0.0
2015-May-24 21:19N 54°10' E 012°07'0 0.0
2015-May-24 19:31N 54°10' E 012°07'0 0.0
2015-May-24 18:28N 54°10' E 012°07'0 0.0
2015-May-24 17:31N 54°10' E 012°07'0 0.0
2015-May-24 16:28N 54°10' E 012°07'0 0.0
2015-May-24 15:22N 54°10' E 012°07'0 0.0
2015-May-24 14:31N 54°10' E 012°07'0 0.0
2015-May-24 13:31N 54°10' E 012°07'0 0.0
2015-May-24 12:13N 54°10' E 012°07'0 0.0
2015-May-24 11:28N 54°10' E 012°07'0 0.0
2015-May-24 10:25N 54°10' E 012°07'0 0.0
2015-May-24 09:19N 54°10' E 012°07'0 0.0
2015-May-24 07:31N 54°10' E 012°07'0 0.0
2015-May-24 06:31N 54°10' E 012°07'0 0.0
2015-May-24 05:28N 54°10' E 012°07'0 0.0
2015-May-24 04:13N 54°10' E 012°07'0 0.0
2015-May-24 03:31N 54°10' E 012°07'0 0.0
2015-May-24 02:31N 54°10' E 012°07'0 0.0
2015-May-24 01:19N 54°10' E 012°07'0 0.0
2015-May-24 00:13N 54°10' E 012°07'0 0.0
2015-May-23 23:13N 54°10' E 012°07'0 0.0
2015-May-23 22:13N 54°10' E 012°07'0 0.0
2015-May-23 21:31N 54°10' E 012°07'0 0.0
2015-May-23 20:28N 54°10' E 012°07'0 0.0
2015-May-23 19:31N 54°10' E 012°07'0 0.0
2015-May-23 18:28N 54°10' E 012°07'0 0.0
2015-May-23 17:28N 54°10' E 012°07'0 0.0
2015-May-23 16:28N 54°10' E 012°07'0 0.0
2015-May-23 15:25N 54°10' E 012°07'0 0.0
2015-May-23 14:28N 54°10' E 012°07'0 0.0
2015-May-23 13:28N 54°10' E 012°07'0 0.0
2015-May-23 11:28N 54°10' E 012°07'0 0.0
2015-May-23 10:31N 54°10' E 012°07'0 0.0
2015-May-23 09:31N 54°10' E 012°07'0 0.0
2015-May-23 08:31N 54°10' E 012°07'0 0.0
2015-May-23 07:19N 54°10' E 012°07'0 0.0
2015-May-23 06:22N 54°10' E 012°07'0 0.0
2015-May-23 05:31N 54°10' E 012°07'0 0.0
2015-May-23 04:25N 54°10' E 012°07'0 0.0
2015-May-23 03:22N 54°10' E 012°07'0 0.0
2015-May-23 02:28N 54°10' E 012°07'0 0.0
2015-May-23 00:31N 54°10' E 012°07'0 0.0
2015-May-22 23:13N 54°10' E 012°07'0 0.0
2015-May-22 22:16N 54°10' E 012°07'0 0.0
2015-May-22 21:28N 54°10' E 012°07'0 0.0
2015-May-22 20:22N 54°10' E 012°07'0 0.0
2015-May-22 19:31N 54°10' E 012°07'0 0.0
2015-May-22 18:13N 54°10' E 012°07'0 0.0
2015-May-22 16:13N 54°10' E 012°07'0 0.0
2015-May-22 15:28N 54°10' E 012°07'0 0.0
2015-May-22 14:31N 54°10' E 012°07'0 0.0
2015-May-22 12:25N 54°10' E 012°07'0 0.0
2015-May-22 11:28N 54°10' E 012°07'0 0.0
2015-May-22 10:28N 54°10' E 012°07'0 0.0
2015-May-22 08:28N 54°10' E 012°07'0 0.0
2015-May-22 07:31N 54°10' E 012°07'0 0.0
2015-May-22 06:10N 54°10' E 012°07'0 0.0
2015-May-22 05:10N 54°10' E 012°07'0 0.0
2015-May-22 03:28N 54°10' E 012°07'0 0.0
2015-May-22 02:22N 54°10' E 012°07'0 0.0
2015-May-22 00:31N 54°10' E 012°07'0 0.0
2015-May-21 23:25N 54°10' E 012°07'0 0.0
2015-May-21 22:31N 54°10' E 012°07'0 0.0
2015-May-21 21:16N 54°10' E 012°07'0 0.0
2015-May-21 20:28N 54°10' E 012°07'0 0.0
2015-May-21 19:28N 54°10' E 012°07'0 0.0
2015-May-21 18:28N 54°10' E 012°07'0 0.0
2015-May-21 17:25N 54°10' E 012°07'0 0.0
2015-May-21 16:31N 54°10' E 012°07'0 0.0
2015-May-21 15:31N 54°10' E 012°07'0 0.0
2015-May-21 13:28N 54°10' E 012°07'0 0.0
2015-May-21 12:22N 54°10' E 012°07'0 0.0
2015-May-21 11:22N 54°10' E 012°07'0 0.0
2015-May-21 10:31N 54°10' E 012°07'0 0.0
2015-May-21 09:25N 54°10' E 012°07'0 0.0
2015-May-21 08:13N 54°10' E 012°07'0 0.0
2015-May-21 07:07N 54°10' E 012°07'0 0.0
2015-May-21 06:22N 54°10' E 012°07'0 0.0
2015-May-21 05:25N 54°10' E 012°07'0 0.0
2015-May-21 04:31N 54°10' E 012°07'0 0.0
2015-May-21 03:28N 54°10' E 012°07'0 0.0
2015-May-21 02:19N 54°10' E 012°07'0 0.0
2015-May-21 01:28N 54°10' E 012°07'0 0.0
2015-May-21 00:31N 54°10' E 012°07'0 0.0
2015-May-20 23:28N 54°10' E 012°07'0 0.0
2015-May-20 22:10N 54°10' E 012°07'0 0.0
2015-May-20 21:22N 54°10' E 012°07'0 0.0
2015-May-20 19:28N 54°10' E 012°07'0 0.0
2015-May-20 18:19N 54°10' E 012°07'0 0.0
2015-May-20 16:28N 54°10' E 012°07'0 0.0
2015-May-20 15:31N 54°10' E 012°07'0 0.0
2015-May-20 14:31N 54°10' E 012°07'0 0.0
2015-May-20 12:31N 54°10' E 012°07'0 0.0
2015-May-20 11:28N 54°10' E 012°07'0 0.0
2015-May-20 10:28N 54°10' E 012°07'0 0.0
2015-May-20 09:28N 54°10' E 012°07'0 0.0
2015-May-20 08:31N 54°10' E 012°07'0 0.0
2015-May-20 07:28N 54°10' E 012°07'0 0.0
2015-May-20 06:25N 54°10' E 012°07'0 0.0
2015-May-20 05:32N 54°10' E 012°07'0 0.0
2015-May-20 03:31N 54°10' E 012°07'0 0.0
2015-May-20 01:25N 54°10' E 012°07'0 0.0
2015-May-20 00:28N 54°10' E 012°07'0 0.0
2015-May-19 23:13N 54°10' E 012°07'0 0.0
2015-May-19 22:25N 54°10' E 012°07'0 0.0
2015-May-19 21:28N 54°10' E 012°07'0 0.0
2015-May-19 19:13N 54°10' E 012°07'0 0.0
2015-May-19 18:29N 54°10' E 012°07'0 0.0
2015-May-19 16:32N 54°10' E 012°07'0 0.0
2015-May-19 15:32N 54°10' E 012°07'0 0.0
2015-May-19 14:31N 54°10' E 012°07'0 0.0
2015-May-19 13:22N 54°10' E 012°07'0 0.0
2015-May-19 12:32N 54°10' E 012°07'0 0.0
2015-May-19 11:31N 54°10' E 012°07'0 0.0
2015-May-19 10:25N 54°10' E 012°07'0 0.0
2015-May-19 09:07N 54°10' E 012°07'0 0.0
2015-May-19 08:28N 54°10' E 012°07'0 0.0
2015-May-19 06:31N 54°10' E 012°07'0 0.0
2015-May-19 05:22N 54°10' E 012°07'0 0.0
2015-May-19 04:26N 54°10' E 012°07'0 0.0
2015-May-19 02:17N 54°10' E 012°07'0 0.0
2015-May-19 01:10N 54°10' E 012°07'0 0.0
2015-May-18 23:10N 54°10' E 012°07'0 0.0
2015-May-18 22:28N 54°10' E 012°07'0 0.0
2015-May-18 21:31N 54°10' E 012°07'0 0.0
2015-May-18 20:31N 54°10' E 012°07'0 0.0
2015-May-18 19:20N 54°10' E 012°07'0 0.0
2015-May-18 18:25N 54°10' E 012°07'0 0.0
2015-May-18 17:26N 54°10' E 012°07'0 0.0
2015-May-18 16:26N 54°10' E 012°07'0 0.0
2015-May-18 15:28N 54°10' E 012°07'0 0.0
2015-May-18 14:22N 54°10' E 012°07'  
Track history (hours):
 
Tides and Currents Weather Stations Pressure Air Temp Water Temp Dewpoint Dewpoint Depression Visibility Wind Speed Wind Dir Waves Ship Positions

S73 Hermelin

Last reported at 2015-May-28 13:29 UTC. Time now 2015-May-30 20:42 UTC.
Position N 54°10' E 012°07'.

Length 58 m.

Type: Military. MMSI: 211210610.

Date/timePositionNaut miles runAvg speedWind from/ knotsBaromVisibWave heightAir tempDewpointWater temp
2015-May-28 13:29N 54°10' E 012°07'1212.5
2015-May-28 12:29N 54°11' E 011°46'9 9.9
2015-May-28 11:33N 54°07' E 011°32'14 9.2
2015-May-28 10:05N 53°57' E 011°16'2 4.5
2015-May-28 09:33N 53°58' E 011°20'1413.5
2015-May-28 08:30N 54°10' E 011°35'8 8.6
2015-May-28 07:31N 54°12' E 011°49'1010.1
2015-May-28 06:32N 54°11' E 012°06'1 0.1
2015-May-27 13:07N 54°10' E 012°07'4 7.7
2015-May-27 12:33N 54°12' E 012°00'2020.2
2015-May-27 11:33N 54°18' E 011°27'7 6.5
2015-May-27 10:33N 54°17' E 011°38'1717.0
2015-May-27 09:32N 54°10' E 012°06'1 0.8
2015-May-27 08:20N 54°10' E 012°08'0 0.0
2015-May-27 07:14N 54°10' E 012°08'0 0.4
2015-May-27 06:25N 54°10' E 012°07'0 0.0
2015-May-27 05:19N 54°10' E 012°07'0 0.0
2015-May-27 03:10N 54°10' E 012°07'0 0.0
2015-May-27 02:31N 54°10' E 012°07'0 0.0
2015-May-27 00:13N 54°10' E 012°07'0 0.0
2015-May-26 23:31N 54°10' E 012°07'0 0.0
2015-May-26 22:31N 54°10' E 012°07'0 0.0
2015-May-26 21:25N 54°10' E 012°07'0 0.0
2015-May-26 20:13N 54°10' E 012°07'0 0.0
2015-May-26 18:28N 54°10' E 012°07'0 0.0
2015-May-26 17:28N 54°10' E 012°07'0 0.0
2015-May-26 16:28N 54°10' E 012°07'0 0.0
2015-May-26 15:22N 54°10' E 012°07'0 0.0
2015-May-26 14:25N 54°10' E 012°07'0 0.0
2015-May-26 12:10N 54°10' E 012°07'0 0.0
2015-May-26 10:28N 54°10' E 012°07'0 0.0
2015-May-26 09:31N 54°10' E 012°07'0 0.0
2015-May-26 08:25N 54°10' E 012°07'0 0.0
2015-May-26 07:31N 54°10' E 012°07'0 0.0
2015-May-26 06:22N 54°10' E 012°07'0 0.0
2015-May-26 05:31N 54°10' E 012°07'0 0.0
2015-May-26 03:31N 54°10' E 012°07'0 0.0
2015-May-26 02:04N 54°10' E 012°07'0 0.0
2015-May-26 01:28N 54°10' E 012°07'0 0.0
2015-May-26 00:13N 54°10' E 012°07'0 0.0
2015-May-25 22:25N 54°10' E 012°07'0 0.0
2015-May-25 21:31N 54°10' E 012°07'0 0.0
2015-May-25 20:31N 54°10' E 012°07'0 0.0
2015-May-25 18:31N 54°10' E 012°07'0 0.0
2015-May-25 17:31N 54°10' E 012°07'0 0.0
2015-May-25 16:22N 54°10' E 012°07'0 0.0
2015-May-25 15:28N 54°10' E 012°07'0 0.0
2015-May-25 14:22N 54°10' E 012°07'0 0.0
2015-May-25 13:31N 54°10' E 012°07'0 0.0
2015-May-25 12:25N 54°10' E 012°07'0 0.0
2015-May-25 11:28N 54°10' E 012°07'0 0.0
2015-May-25 10:28N 54°10' E 012°07'0 0.0
2015-May-25 09:31N 54°10' E 012°07'0 0.0
2015-May-25 08:10N 54°10' E 012°07'0 0.0
2015-May-25 07:22N 54°10' E 012°07'0 0.0
2015-May-25 06:25N 54°10' E 012°07'0 0.0
2015-May-25 05:28N 54°10' E 012°07'0 0.0
2015-May-25 03:22N 54°10' E 012°07'0 0.0
2015-May-25 02:16N 54°10' E 012°07'0 0.0
2015-May-25 01:28N 54°10' E 012°07'0 0.0
2015-May-25 00:28N 54°10' E 012°07'0 0.0
2015-May-24 23:25N 54°10' E 012°07'0 0.0
2015-May-24 22:22N 54°10' E 012°07'0 0.0
2015-May-24 21:19N 54°10' E 012°07'0 0.0
2015-May-24 19:31N 54°10' E 012°07'0 0.0
2015-May-24 18:28N 54°10' E 012°07'0 0.0
2015-May-24 17:31N 54°10' E 012°07'0 0.0
2015-May-24 16:28N 54°10' E 012°07'0 0.0
2015-May-24 15:22N 54°10' E 012°07'0 0.0
2015-May-24 14:31N 54°10' E 012°07'0 0.0
2015-May-24 13:31N 54°10' E 012°07'0 0.0
2015-May-24 12:13N 54°10' E 012°07'0 0.0
2015-May-24 11:28N 54°10' E 012°07'0 0.0
2015-May-24 10:25N 54°10' E 012°07'0 0.0
2015-May-24 09:19N 54°10' E 012°07'0 0.0
2015-May-24 07:31N 54°10' E 012°07'0 0.0
2015-May-24 06:31N 54°10' E 012°07'0 0.0
2015-May-24 05:28N 54°10' E 012°07'0 0.0
2015-May-24 04:13N 54°10' E 012°07'0 0.0
2015-May-24 03:31N 54°10' E 012°07'0 0.0
2015-May-24 02:31N 54°10' E 012°07'0 0.0
2015-May-24 01:19N 54°10' E 012°07'0 0.0
2015-May-24 00:13N 54°10' E 012°07'0 0.0
2015-May-23 23:13N 54°10' E 012°07'0 0.0
2015-May-23 22:13N 54°10' E 012°07'0 0.0
2015-May-23 21:31N 54°10' E 012°07'0 0.0
2015-May-23 20:28N 54°10' E 012°07'0 0.0
2015-May-23 19:31N 54°10' E 012°07'0 0.0
2015-May-23 18:28N 54°10' E 012°07'0 0.0
2015-May-23 17:28N 54°10' E 012°07'0 0.0
2015-May-23 16:28N 54°10' E 012°07'0 0.0
2015-May-23 15:25N 54°10' E 012°07'0 0.0
2015-May-23 14:28N 54°10' E 012°07'0 0.0
2015-May-23 13:28N 54°10' E 012°07'0 0.0
2015-May-23 11:28N 54°10' E 012°07'0 0.0
2015-May-23 10:31N 54°10' E 012°07'0 0.0
2015-May-23 09:31N 54°10' E 012°07'0 0.0
2015-May-23 08:31N 54°10' E 012°07'0 0.0
2015-May-23 07:19N 54°10' E 012°07'0 0.0
2015-May-23 06:22N 54°10' E 012°07'0 0.0
2015-May-23 05:31N 54°10' E 012°07'0 0.0
2015-May-23 04:25N 54°10' E 012°07'0 0.0
2015-May-23 03:22N 54°10' E 012°07'0 0.0
2015-May-23 02:28N 54°10' E 012°07'0 0.0
2015-May-23 00:31N 54°10' E 012°07'0 0.0
2015-May-22 23:13N 54°10' E 012°07'0 0.0
2015-May-22 22:16N 54°10' E 012°07'0 0.0
2015-May-22 21:28N 54°10' E 012°07'0 0.0
2015-May-22 20:22N 54°10' E 012°07'0 0.0
2015-May-22 19:31N 54°10' E 012°07'0 0.0
2015-May-22 18:13N 54°10' E 012°07'0 0.0
2015-May-22 16:13N 54°10' E 012°07'0 0.0
2015-May-22 15:28N 54°10' E 012°07'0 0.0
2015-May-22 14:31N 54°10' E 012°07'0 0.0
2015-May-22 12:25N 54°10' E 012°07'0 0.0
2015-May-22 11:28N 54°10' E 012°07'0 0.0
2015-May-22 10:28N 54°10' E 012°07'0 0.0
2015-May-22 08:28N 54°10' E 012°07'0 0.0
2015-May-22 07:31N 54°10' E 012°07'0 0.0
2015-May-22 06:10N 54°10' E 012°07'0 0.0
2015-May-22 05:10N 54°10' E 012°07'0 0.0
2015-May-22 03:28N 54°10' E 012°07'0 0.0
2015-May-22 02:22N 54°10' E 012°07'0 0.0
2015-May-22 00:31N 54°10' E 012°07'0 0.0
2015-May-21 23:25N 54°10' E 012°07'0 0.0
2015-May-21 22:31N 54°10' E 012°07'0 0.0
2015-May-21 21:16N 54°10' E 012°07'0 0.0
2015-May-21 20:28N 54°10' E 012°07'0 0.0
2015-May-21 19:28N 54°10' E 012°07'0 0.0
2015-May-21 18:28N 54°10' E 012°07'0 0.0
2015-May-21 17:25N 54°10' E 012°07'0 0.0
2015-May-21 16:31N 54°10' E 012°07'0 0.0
2015-May-21 15:31N 54°10' E 012°07'0 0.0
2015-May-21 13:28N 54°10' E 012°07'0 0.0
2015-May-21 12:22N 54°10' E 012°07'0 0.0
2015-May-21 11:22N 54°10' E 012°07'0 0.0
2015-May-21 10:31N 54°10' E 012°07'0 0.0
2015-May-21 09:25N 54°10' E 012°07'0 0.0
2015-May-21 08:13N 54°10' E 012°07'0 0.0
2015-May-21 07:07N 54°10' E 012°07'0 0.0
2015-May-21 06:22N 54°10' E 012°07'0 0.0
2015-May-21 05:25N 54°10' E 012°07'0 0.0
2015-May-21 04:31N 54°10' E 012°07'0 0.0
2015-May-21 03:28N 54°10' E 012°07'0 0.0
2015-May-21 02:19N 54°10' E 012°07'0 0.0
2015-May-21 01:28N 54°10' E 012°07'0 0.0
2015-May-21 00:31N 54°10' E 012°07'0 0.0
2015-May-20 23:28N 54°10' E 012°07'0 0.0
2015-May-20 22:10N 54°10' E 012°07'0 0.0
2015-May-20 21:22N 54°10' E 012°07'0 0.0
2015-May-20 19:28N 54°10' E 012°07'0 0.0
2015-May-20 18:19N 54°10' E 012°07'0 0.0
2015-May-20 16:28N 54°10' E 012°07'0 0.0
2015-May-20 15:31N 54°10' E 012°07'0 0.0
2015-May-20 14:31N 54°10' E 012°07'0 0.0
2015-May-20 12:31N 54°10' E 012°07'0 0.0
2015-May-20 11:28N 54°10' E 012°07'0 0.0
2015-May-20 10:28N 54°10' E 012°07'0 0.0
2015-May-20 09:28N 54°10' E 012°07'0 0.0
2015-May-20 08:31N 54°10' E 012°07'0 0.0
2015-May-20 07:28N 54°10' E 012°07'0 0.0
2015-May-20 06:25N 54°10' E 012°07'0 0.0
2015-May-20 05:32N 54°10' E 012°07'0 0.0
2015-May-20 03:31N 54°10' E 012°07'0 0.0
2015-May-20 01:25N 54°10' E 012°07'0 0.0
2015-May-20 00:28N 54°10' E 012°07'0 0.0
2015-May-19 23:13N 54°10' E 012°07'0 0.0
2015-May-19 22:25N 54°10' E 012°07'0 0.0
2015-May-19 21:28N 54°10' E 012°07'0 0.0
2015-May-19 19:13N 54°10' E 012°07'0 0.0
2015-May-19 18:29N 54°10' E 012°07'0 0.0
2015-May-19 16:32N 54°10' E 012°07'0 0.0
2015-May-19 15:32N 54°10' E 012°07'0 0.0
2015-May-19 14:31N 54°10' E 012°07'0 0.0
2015-May-19 13:22N 54°10' E 012°07'0 0.0
2015-May-19 12:32N 54°10' E 012°07'0 0.0
2015-May-19 11:31N 54°10' E 012°07'0 0.0
2015-May-19 10:25N 54°10' E 012°07'0 0.0
2015-May-19 09:07N 54°10' E 012°07'0 0.0
2015-May-19 08:28N 54°10' E 012°07'0 0.0
2015-May-19 06:31N 54°10' E 012°07'0 0.0
2015-May-19 05:22N 54°10' E 012°07'0 0.0
2015-May-19 04:26N 54°10' E 012°07'0 0.0
2015-May-19 02:17N 54°10' E 012°07'0 0.0
2015-May-19 01:10N 54°10' E 012°07'0 0.0
2015-May-18 23:10N 54°10' E 012°07'0 0.0
2015-May-18 22:28N 54°10' E 012°07'0 0.0
2015-May-18 21:31N 54°10' E 012°07'0 0.0
2015-May-18 20:31N 54°10' E 012°07'0 0.0
2015-May-18 19:20N 54°10' E 012°07'0 0.0
2015-May-18 18:25N 54°10' E 012°07'0 0.0
2015-May-18 17:26N 54°10' E 012°07'0 0.0
2015-May-18 16:26N 54°10' E 012°07'0 0.0
2015-May-18 15:28N 54°10' E 012°07'0 0.0
2015-May-18 14:22N 54°10' E 012°07'  

Dump ship's entire track history